Time;durP1;ratioP1;P1;durP2;ratioP2;P2;SDS_P1;SDS_P2;PMS_P1;PMS_P2;Temp;Humidity;BMP_temperature;BMP_pressure;BME280_temperature;BME280_humidity;BME280_pressure;Samples;Min_cycle;Max_cycle;Signal;HPM_P1;HPM_P2
2022/05/01 00:01:00;;;;;;;10.52;7.47;;;11.60;91.20;;;;;;5012973;28;20037;-49
2022/05/01 00:03:31;;;;;;;11.10;7.60;;;11.50;91.20;;;;;;5012449;28;20080;-53
2022/05/01 00:06:06;;;;;;;8.90;7.35;;;11.50;91.40;;;;;;5012592;28;20066;-52
2022/05/01 00:08:33;;;;;;;10.90;7.50;;;11.50;91.40;;;;;;5013234;28;20052;-51
2022/05/01 00:11:00;;;;;;;12.30;7.57;;;11.40;91.60;;;;;;5011577;28;20512;-52
2022/05/01 00:13:26;;;;;;;13.55;7.43;;;11.30;91.80;;;;;;5012967;28;20045;-51
2022/05/01 00:15:53;;;;;;;11.80;7.90;;;11.30;91.80;;;;;;5012116;28;20095;-49
2022/05/01 00:18:19;;;;;;;11.07;8.00;;;11.40;91.70;;;;;;5012954;28;20022;-54
2022/05/01 00:20:45;;;;;;;8.90;7.03;;;11.40;91.70;;;;;;5011635;28;20519;-52
2022/05/01 00:23:12;;;;;;;14.55;8.40;;;11.30;91.70;;;;;;5011450;28;20044;-54
2022/05/01 00:25:42;;;;;;;9.93;7.25;;;11.30;92.00;;;;;;5011585;28;20034;-55
2022/05/01 00:28:09;;;;;;;12.23;7.45;;;11.30;91.90;;;;;;5010901;28;20518;-53
2022/05/01 00:30:36;;;;;;;10.43;6.85;;;11.30;91.80;;;;;;5011843;28;20414;-54
2022/05/01 00:38:30;;;;;;;10.65;7.28;;;11.40;91.60;;;;;;5011513;28;20030;-55
2022/05/01 00:40:57;;;;;;;9.30;6.15;;;11.30;91.70;;;;;;5011422;28;20034;-54
2022/05/01 00:43:23;;;;;;;14.43;6.88;;;11.30;91.60;;;;;;5027473;28;20252;-53
2022/05/01 00:45:48;;;;;;;9.25;6.90;;;11.30;91.50;;;;;;5015466;28;20033;-53
2022/05/01 00:48:14;;;;;;;8.73;6.25;;;11.30;91.60;;;;;;5011279;28;20444;-54
2022/05/01 00:50:44;;;;;;;11.50;6.55;;;11.20;91.50;;;;;;5011635;28;20037;-54
2022/05/01 00:53:10;;;;;;;9.32;6.35;;;11.30;91.70;;;;;;5011147;28;20036;-52
2022/05/01 00:55:36;;;;;;;10.07;6.15;;;11.30;91.30;;;;;;5011282;28;20060;-52
2022/05/01 00:58:05;;;;;;;9.88;6.90;;;11.30;91.30;;;;;;5012210;28;20104;-54
2022/05/01 01:00:31;;;;;;;9.45;5.68;;;11.30;91.10;;;;;;5011731;28;20474;-54
2022/05/01 01:02:56;;;;;;;11.63;6.40;;;11.20;91.10;;;;;;5011166;28;20033;-50
2022/05/01 01:05:22;;;;;;;10.68;6.05;;;11.20;91.20;;;;;;5009760;28;20099;-47
2022/05/01 01:07:47;;;;;;;8.23;5.55;;;11.20;91.10;;;;;;5010355;28;20037;-51
2022/05/01 01:10:14;;;;;;;8.95;5.80;;;11.30;91.00;;;;;;5011516;28;20613;-54
2022/05/01 01:12:55;;;;;;;8.93;6.07;;;11.30;91.10;;;;;;5011168;28;20032;-55
2022/05/01 01:15:23;;;;;;;6.68;5.70;;;11.40;90.90;;;;;;5011261;28;20057;-53
2022/05/01 01:17:52;;;;;;;6.45;5.18;;;11.30;91.00;;;;;;5011176;28;20136;-52
2022/05/01 01:20:26;;;;;;;9.95;5.82;;;11.30;90.80;;;;;;5010271;28;20030;-53
2022/05/01 01:22:57;;;;;;;7.30;6.05;;;11.20;90.70;;;;;;5010555;28;20030;-55
2022/05/01 01:25:29;;;;;;;6.18;5.03;;;11.20;90.70;;;;;;5011124;28;20034;-55
2022/05/01 01:28:03;;;;;;;7.97;5.15;;;11.30;90.50;;;;;;5010933;28;20042;-52
2022/05/01 01:33:15;;;;;;;6.28;5.10;;;11.20;90.50;;;;;;4991557;28;20056;-56
2022/05/01 01:35:43;;;;;;;11.20;5.40;;;11.10;90.70;;;;;;4992183;28;20030;-52
2022/05/01 01:38:09;;;;;;;9.10;5.07;;;11.20;90.60;;;;;;5011555;28;20030;-50
2022/05/01 01:40:40;;;;;;;8.27;5.00;;;11.20;90.40;;;;;;5011794;28;20062;-53
2022/05/01 01:43:06;;;;;;;7.32;5.00;;;11.10;90.50;;;;;;5023705;28;20128;-52
2022/05/01 01:45:32;;;;;;;6.80;4.65;;;11.10;90.30;;;;;;5029328;28;20025;-51
2022/05/01 01:48:14;;;;;;;9.20;5.35;;;11.00;90.40;;;;;;5012372;28;20486;-54
2022/05/01 01:50:41;;;;;;;8.93;4.82;;;11.10;90.30;;;;;;5010929;28;20046;-55
2022/05/01 01:53:08;;;;;;;9.60;5.53;;;11.10;90.20;;;;;;5010598;28;20486;-52
2022/05/01 01:55:37;;;;;;;8.10;4.80;;;11.10;90.30;;;;;;5010617;28;20088;-56
2022/05/01 01:58:03;;;;;;;9.15;4.82;;;11.20;90.10;;;;;;5010888;28;20030;-54
2022/05/01 02:00:29;;;;;;;6.70;5.13;;;11.20;90.00;;;;;;5011598;28;20034;-51
2022/05/01 02:02:59;;;;;;;8.43;4.72;;;11.10;90.10;;;;;;5010591;28;20135;-55
2022/05/01 02:05:26;;;;;;;6.18;4.85;;;11.00;90.10;;;;;;5011771;28;20545;-55
2022/05/01 02:07:52;;;;;;;6.88;4.97;;;11.00;90.10;;;;;;5010896;28;20494;-50
2022/05/01 02:10:18;;;;;;;8.77;4.63;;;11.00;90.20;;;;;;5011349;28;20072;-55
2022/05/01 02:12:44;;;;;;;6.75;4.35;;;11.00;90.30;;;;;;5008939;28;20713;-51
2022/05/01 02:15:09;;;;;;;8.93;5.20;;;11.00;90.20;;;;;;5010502;28;20041;-54
2022/05/01 02:17:35;;;;;;;6.75;5.07;;;11.00;90.20;;;;;;5010828;28;20128;-48
2022/05/01 02:20:01;;;;;;;9.02;6.15;;;11.00;90.30;;;;;;5010873;28;20221;-54
2022/05/01 02:22:27;;;;;;;8.32;5.45;;;11.00;90.40;;;;;;5010237;28;20034;-52
2022/05/01 02:24:54;;;;;;;6.43;4.60;;;11.10;90.20;;;;;;5010877;28;20091;-54
2022/05/01 02:27:20;;;;;;;6.80;4.95;;;11.20;90.30;;;;;;5010381;28;20087;-53
2022/05/01 02:29:46;;;;;;;8.18;4.82;;;11.10;90.20;;;;;;5009499;28;20038;-54
2022/05/01 02:32:12;;;;;;;6.68;5.05;;;11.00;90.30;;;;;;5008676;28;20092;-52
2022/05/01 02:34:37;;;;;;;6.00;4.15;;;11.00;90.20;;;;;;5012381;28;20026;-55
2022/05/01 02:37:03;;;;;;;10.55;5.15;;;11.10;90.30;;;;;;5013785;28;20025;-54
2022/05/01 02:39:29;;;;;;;6.78;4.40;;;11.00;90.40;;;;;;5014402;28;20425;-50
2022/05/01 02:41:56;;;;;;;7.53;4.63;;;11.10;90.30;;;;;;5018049;28;20026;-52
2022/05/01 02:44:21;;;;;;;6.80;4.82;;;11.00;90.20;;;;;;5025128;28;20034;-51
2022/05/01 02:46:47;;;;;;;6.80;4.40;;;11.00;90.30;;;;;;5014220;28;20030;-49
2022/05/01 02:49:14;;;;;;;5.70;4.10;;;11.00;90.30;;;;;;5014345;28;20536;-54
2022/05/01 02:51:39;;;;;;;7.68;4.63;;;11.00;90.30;;;;;;5013734;28;20053;-52
2022/05/01 02:54:05;;;;;;;11.40;5.72;;;10.90;90.40;;;;;;5013681;28;20068;-53
2022/05/01 02:56:31;;;;;;;6.32;4.88;;;10.70;90.40;;;;;;5013924;28;20393;-53
2022/05/01 02:58:57;;;;;;;7.90;4.82;;;10.70;90.50;;;;;;5012827;28;20034;-52
2022/05/01 03:01:23;;;;;;;7.32;4.32;;;10.70;90.50;;;;;;5013628;28;20053;-56
2022/05/01 03:03:49;;;;;;;7.90;4.75;;;10.80;90.50;;;;;;5013985;28;20034;-53
2022/05/01 03:06:15;;;;;;;6.20;4.80;;;10.70;90.40;;;;;;5013257;28;20402;-52
2022/05/01 03:08:41;;;;;;;6.75;4.72;;;10.70;90.60;;;;;;5013933;28;20125;-52
2022/05/01 03:11:06;;;;;;;7.47;4.53;;;10.70;90.40;;;;;;5013765;28;20037;-50
2022/05/01 03:13:32;;;;;;;7.10;4.38;;;10.80;90.30;;;;;;5014484;28;20030;-52
2022/05/01 03:15:57;;;;;;;7.82;5.55;;;10.70;90.30;;;;;;5014590;28;20030;-54
2022/05/01 03:23:51;;;;;;;10.27;4.50;;;10.90;90.10;;;;;;5013347;28;20564;-53
2022/05/01 03:26:18;;;;;;;8.93;5.00;;;10.80;90.10;;;;;;5013424;28;20176;-50
2022/05/01 03:28:44;;;;;;;6.45;4.22;;;10.70;90.20;;;;;;5012953;28;20049;-49
2022/05/01 03:31:11;;;;;;;8.07;4.53;;;10.70;90.40;;;;;;5013059;28;20049;-51
2022/05/01 03:33:37;;;;;;;8.77;4.57;;;10.70;90.40;;;;;;5013540;28;20026;-52
2022/05/01 03:36:06;;;;;;;6.05;4.30;;;10.80;90.20;;;;;;5013282;28;20033;-54
2022/05/01 03:38:35;;;;;;;8.02;4.70;;;10.90;90.10;;;;;;5013899;28;20030;-51
2022/05/01 03:41:01;;;;;;;7.28;4.72;;;10.90;89.70;;;;;;5013563;28;20040;-50
2022/05/01 03:43:27;;;;;;;8.77;5.20;;;10.70;90.20;;;;;;5029560;28;20029;-49
2022/05/01 03:45:52;;;;;;;7.75;4.63;;;10.60;90.50;;;;;;5019609;28;20406;-49
2022/05/01 03:48:18;;;;;;;11.52;4.85;;;10.70;90.40;;;;;;5012264;28;20069;-51
2022/05/01 03:50:43;;;;;;;7.72;4.88;;;10.80;90.20;;;;;;5013276;28;20148;-49
2022/05/01 03:53:09;;;;;;;7.47;4.70;;;10.70;90.30;;;;;;5013501;28;20029;-53
2022/05/01 03:55:36;;;;;;;7.57;4.60;;;10.80;90.20;;;;;;5012845;28;20038;-53
2022/05/01 03:58:02;;;;;;;6.50;4.57;;;10.70;90.20;;;;;;5013432;28;20487;-50
2022/05/01 04:00:28;;;;;;;10.52;5.13;;;10.80;90.10;;;;;;5013259;28;20076;-52
2022/05/01 04:02:54;;;;;;;7.70;4.50;;;10.80;90.00;;;;;;5013128;28;20517;-50
2022/05/01 04:05:20;;;;;;;6.35;4.82;;;10.80;89.90;;;;;;5013027;28;20029;-52
2022/05/01 04:07:45;;;;;;;7.70;4.35;;;10.60;90.00;;;;;;5013212;28;20041;-53
2022/05/01 04:10:12;;;;;;;6.43;5.15;;;10.60;90.10;;;;;;5013010;28;20105;-52
2022/05/01 04:12:38;;;;;;;8.30;5.15;;;10.70;90.10;;;;;;5013073;28;20393;-52
2022/05/01 04:15:07;;;;;;;6.60;5.03;;;10.70;89.10;;;;;;5013191;28;20038;-55
2022/05/01 04:17:38;;;;;;;5.68;4.30;;;10.60;89.30;;;;;;5012755;28;20517;-49
2022/05/01 04:20:12;;;;;;;9.32;4.90;;;10.70;88.90;;;;;;5013358;28;20114;-53
2022/05/01 04:22:38;;;;;;;8.77;4.53;;;10.70;88.60;;;;;;5012809;28;20096;-52
2022/05/01 04:25:06;;;;;;;6.10;4.50;;;10.70;88.50;;;;;;5012592;28;20490;-49
2022/05/01 04:27:31;;;;;;;7.60;4.38;;;10.70;88.50;;;;;;5012780;28;20042;-51
2022/05/01 04:29:57;;;;;;;6.80;4.68;;;10.70;88.30;;;;;;5012580;28;20045;-53
2022/05/01 04:32:23;;;;;;;9.13;4.15;;;10.70;87.90;;;;;;5013124;28;20459;-53
2022/05/01 04:34:48;;;;;;;5.35;4.30;;;10.70;87.80;;;;;;5012488;28;20109;-53
2022/05/01 04:37:14;;;;;;;5.88;4.38;;;10.80;87.70;;;;;;5012075;28;20112;-52
2022/05/01 04:39:40;;;;;;;7.03;4.00;;;10.80;87.00;;;;;;5011647;28;20061;-53
2022/05/01 04:42:07;;;;;;;5.07;4.43;;;10.80;87.60;;;;;;5017022;28;20036;-52
2022/05/01 04:44:32;;;;;;;7.38;4.93;;;10.90;87.30;;;;;;5020779;28;20037;-51
2022/05/01 04:46:58;;;;;;;5.25;4.20;;;10.80;87.40;;;;;;5010555;28;20045;-53
2022/05/01 04:49:24;;;;;;;10.40;4.65;;;10.90;87.10;;;;;;5012085;28;20042;-49
2022/05/01 04:51:49;;;;;;;6.85;4.13;;;10.90;87.10;;;;;;5012349;28;20535;-53
2022/05/01 04:54:15;;;;;;;6.60;4.85;;;10.90;87.20;;;;;;5012138;28;20038;-53
2022/05/01 04:59:25;;;;;;;8.27;4.95;;;10.90;86.50;;;;;;5012337;28;20033;-54
2022/05/01 05:01:51;;;;;;;6.13;4.20;;;10.80;86.60;;;;;;5012436;28;20045;-52
2022/05/01 05:04:16;;;;;;;7.85;4.50;;;10.80;86.70;;;;;;5012270;28;20038;-54
2022/05/01 05:06:42;;;;;;;6.10;4.43;;;10.90;86.80;;;;;;5011569;28;20491;-52
2022/05/01 05:11:51;;;;;;;5.63;4.80;;;11.00;86.40;;;;;;5011864;28;20042;-51
2022/05/01 05:14:17;;;;;;;8.13;4.78;;;11.00;86.20;;;;;;5011630;28;20521;-51
2022/05/01 05:16:43;;;;;;;9.57;4.85;;;11.00;86.30;;;;;;5010969;28;20389;-49
2022/05/01 05:19:09;;;;;;;7.00;4.38;;;11.10;86.20;;;;;;5010411;28;20521;-52
2022/05/01 05:21:34;;;;;;;9.18;4.70;;;11.00;86.50;;;;;;5012140;28;20253;-54
2022/05/01 05:24:00;;;;;;;6.28;4.43;;;11.00;86.40;;;;;;5010852;28;20125;-53
2022/05/01 05:26:25;;;;;;;8.90;4.40;;;11.00;86.80;;;;;;5011264;28;20037;-54
2022/05/01 05:28:51;;;;;;;7.13;4.22;;;11.10;86.60;;;;;;5011623;28;20514;-53
2022/05/01 05:31:16;;;;;;;6.18;4.35;;;11.10;87.10;;;;;;5011653;28;20039;-49
2022/05/01 05:33:42;;;;;;;6.30;4.40;;;11.10;86.80;;;;;;5010493;28;20040;-52
2022/05/01 05:36:07;;;;;;;8.88;4.75;;;11.10;87.00;;;;;;5011007;28;20126;-50
2022/05/01 05:38:33;;;;;;;7.50;4.55;;;11.00;87.40;;;;;;5009583;28;20112;-52
2022/05/01 05:41:00;;;;;;;6.13;4.47;;;11.20;87.40;;;;;;5009402;28;20490;-52
2022/05/01 05:43:25;;;;;;;7.18;4.78;;;11.30;87.00;;;;;;5018325;28;20061;-54
2022/05/01 05:45:51;;;;;;;7.55;4.70;;;11.40;87.00;;;;;;5010470;28;20334;-53
2022/05/01 05:48:16;;;;;;;7.10;4.57;;;11.30;86.90;;;;;;5011684;28;20042;-54
2022/05/01 05:50:42;;;;;;;7.10;5.25;;;11.20;87.30;;;;;;4994192;28;20406;-53
2022/05/01 05:53:07;;;;;;;9.25;5.68;;;11.30;87.50;;;;;;5011764;28;20405;-52
2022/05/01 05:55:33;;;;;;;6.88;4.78;;;11.30;87.50;;;;;;5010709;28;20107;-52
2022/05/01 05:58:00;;;;;;;9.02;5.65;;;11.30;87.60;;;;;;5011690;28;20386;-53
2022/05/01 06:00:26;;;;;;;7.35;4.95;;;11.40;87.80;;;;;;5011367;28;20042;-50
2022/05/01 06:02:51;;;;;;;10.05;5.78;;;11.40;87.70;;;;;;5011094;28;20036;-51
2022/05/01 06:05:17;;;;;;;8.55;5.30;;;11.50;87.90;;;;;;5010323;28;20144;-51
2022/05/01 06:07:42;;;;;;;8.70;5.30;;;11.40;87.80;;;;;;5011992;28;20070;-53
2022/05/01 06:10:08;;;;;;;10.10;4.93;;;11.40;88.10;;;;;;5014887;28;20743;-52
2022/05/01 06:12:41;;;;;;;8.52;5.68;;;11.40;88.30;;;;;;5014809;28;20038;-50
2022/05/01 06:15:07;;;;;;;9.43;5.38;;;11.20;89.00;;;;;;5014418;28;20050;-52
2022/05/01 06:17:32;;;;;;;9.18;5.65;;;11.20;89.30;;;;;;5014691;28;20095;-54
2022/05/01 06:19:58;;;;;;;9.15;5.88;;;11.30;88.80;;;;;;5014779;28;20635;-54
2022/05/01 06:22:23;;;;;;;8.30;5.88;;;11.30;89.00;;;;;;5014421;28;20568;-54
2022/05/01 06:24:49;;;;;;;10.13;5.47;;;11.30;89.20;;;;;;5014160;28;20539;-55
2022/05/01 06:27:15;;;;;;;7.18;5.00;;;11.30;89.40;;;;;;5014579;28;20040;-55
2022/05/01 06:29:40;;;;;;;7.25;5.10;;;11.50;88.80;;;;;;5013159;28;20095;-53
2022/05/01 06:32:08;;;;;;;12.18;5.90;;;11.60;88.70;;;;;;5013077;28;20034;-55
2022/05/01 06:34:35;;;;;;;8.98;5.43;;;11.60;88.60;;;;;;5014956;28;20022;-53
2022/05/01 06:37:00;;;;;;;9.02;5.55;;;11.50;89.10;;;;;;5014410;28;20033;-53
2022/05/01 06:39:26;;;;;;;11.60;5.53;;;11.70;88.60;;;;;;5013625;28;20397;-54
2022/05/01 06:41:53;;;;;;;8.98;5.35;;;11.80;88.40;;;;;;5016082;28;20034;-52
2022/05/01 06:44:19;;;;;;;6.65;5.30;;;11.90;88.70;;;;;;5013395;28;20034;-55
2022/05/01 06:46:44;;;;;;;9.02;5.20;;;11.70;88.80;;;;;;5013616;28;20124;-54
2022/05/01 06:49:11;;;;;;;7.63;5.55;;;11.80;88.70;;;;;;5013733;28;20096;-54
2022/05/01 06:51:36;;;;;;;7.70;5.38;;;12.10;88.30;;;;;;5014189;28;20096;-50
2022/05/01 06:54:04;;;;;;;11.02;5.43;;;12.00;88.60;;;;;;5013761;28;20505;-53
2022/05/01 06:56:30;;;;;;;6.90;5.75;;;12.20;87.60;;;;;;5013564;28;20057;-55
2022/05/01 06:58:55;;;;;;;9.50;5.63;;;12.20;87.40;;;;;;5012508;28;20455;-54
2022/05/01 07:01:21;;;;;;;8.43;5.10;;;12.20;86.90;;;;;;5013229;28;20248;-51
2022/05/01 07:03:47;;;;;;;6.35;5.10;;;12.10;87.20;;;;;;5011864;28;20072;-54
2022/05/01 07:06:13;;;;;;;5.85;4.80;;;12.20;86.80;;;;;;5013768;28;20040;-49
2022/05/01 07:08:38;;;;;;;6.53;5.32;;;12.10;87.10;;;;;;5013744;28;20470;-55
2022/05/01 07:11:09;;;;;;;7.53;5.40;;;12.20;87.10;;;;;;5013672;28;20521;-52
2022/05/01 07:13:36;;;;;;;8.55;5.70;;;12.10;87.60;;;;;;5011613;28;20033;-54
2022/05/01 07:16:01;;;;;;;9.07;5.57;;;12.30;87.60;;;;;;5013018;28;20057;-51
2022/05/01 07:18:27;;;;;;;7.57;5.88;;;12.50;87.10;;;;;;5013508;28;20069;-53
2022/05/01 07:20:52;;;;;;;8.18;5.25;;;12.60;85.80;;;;;;5011888;28;20033;-53
2022/05/01 07:23:22;;;;;;;10.95;5.45;;;12.60;85.60;;;;;;5014041;28;20060;-52
2022/05/01 07:25:48;;;;;;;9.30;6.03;;;12.70;85.00;;;;;;5013411;28;20033;-53
2022/05/01 07:28:14;;;;;;;7.10;5.20;;;13.00;84.30;;;;;;5014024;28;20034;-52
2022/05/01 07:30:39;;;;;;;8.02;4.50;;;13.00;83.70;;;;;;5012420;28;20041;-54
2022/05/01 07:33:05;;;;;;;7.70;5.20;;;13.00;83.50;;;;;;5014341;28;20065;-54
2022/05/01 07:35:31;;;;;;;6.97;5.05;;;13.00;83.00;;;;;;5012864;28;20429;-52
2022/05/01 07:37:56;;;;;;;6.03;5.20;;;12.90;83.60;;;;;;5013324;28;20022;-57
2022/05/01 07:40:24;;;;;;;8.43;5.00;;;13.00;83.00;;;;;;5011816;28;20367;-55
2022/05/01 07:42:53;;;;;;;6.13;4.80;;;13.10;83.50;;;;;;5025151;28;20037;-57
2022/05/01 07:45:18;;;;;;;6.28;4.97;;;13.20;81.80;;;;;;5019734;28;20030;-50
2022/05/01 07:47:44;;;;;;;10.27;5.43;;;13.10;81.80;;;;;;5014247;28;20045;-51
2022/05/01 07:50:10;;;;;;;6.68;4.90;;;13.00;82.00;;;;;;5014274;28;20069;-54
2022/05/01 07:52:36;;;;;;;7.47;5.18;;;13.00;82.60;;;;;;5013970;28;20121;-54
2022/05/01 07:55:05;;;;;;;8.32;5.28;;;13.10;83.10;;;;;;5013728;28;20065;-53
2022/05/01 07:57:31;;;;;;;9.65;5.60;;;13.10;82.90;;;;;;5012860;28;20026;-53
2022/05/01 07:59:56;;;;;;;8.80;4.80;;;13.10;83.10;;;;;;5013235;28;20036;-54
2022/05/01 08:02:22;;;;;;;8.30;5.00;;;13.10;83.20;;;;;;5013726;28;20117;-53
2022/05/01 08:04:48;;;;;;;9.38;5.93;;;13.10;83.40;;;;;;5013911;28;20364;-52
2022/05/01 08:07:15;;;;;;;7.72;5.50;;;13.10;83.40;;;;;;5011771;28;20041;-53
2022/05/01 08:09:41;;;;;;;9.10;5.22;;;13.10;83.40;;;;;;5012698;28;20041;-54
2022/05/01 08:12:07;;;;;;;10.20;6.03;;;13.00;83.70;;;;;;5012487;28;20635;-51
2022/05/01 08:14:34;;;;;;;9.50;6.45;;;13.10;83.60;;;;;;5017650;28;20048;-55
2022/05/01 08:16:59;;;;;;;8.85;5.03;;;13.10;83.00;;;;;;5004512;28;20132;-52
2022/05/01 08:22:09;;;;;;;9.40;5.97;;;13.40;84.10;;;;;;4993513;28;20122;-54
2022/05/01 08:24:35;;;;;;;6.53;5.25;;;13.10;84.30;;;;;;4992713;28;20622;-53
2022/05/01 08:27:07;;;;;;;7.25;5.22;;;13.10;84.50;;;;;;5008791;28;20026;-52
2022/05/01 08:29:34;;;;;;;7.47;5.40;;;13.10;84.30;;;;;;5011669;28;20030;-49
2022/05/01 08:32:00;;;;;;;10.52;5.78;;;13.20;84.40;;;;;;5011416;28;20033;-52
2022/05/01 08:34:26;;;;;;;10.50;6.80;;;13.10;84.70;;;;;;5013430;28;20040;-51
2022/05/01 08:36:52;;;;;;;7.35;5.30;;;13.20;84.90;;;;;;5022012;28;20040;-52
2022/05/01 08:39:18;;;;;;;17.83;6.25;;;13.30;85.10;;;;;;5012224;28;20022;-56
2022/05/01 08:41:43;;;;;;;7.35;5.65;;;13.50;84.50;;;;;;5025341;28;20163;-55
2022/05/01 08:44:13;;;;;;;8.88;5.70;;;13.40;84.60;;;;;;5030124;28;20061;-54
2022/05/01 08:46:53;;;;;;;9.93;5.72;;;13.50;84.50;;;;;;5014320;28;20021;-51
2022/05/01 08:49:20;;;;;;;7.82;5.35;;;13.70;83.60;;;;;;4995283;28;20037;-52
2022/05/01 08:51:46;;;;;;;10.05;5.40;;;13.70;83.20;;;;;;5007921;28;20088;-52
2022/05/01 08:54:14;;;;;;;8.00;6.28;;;13.30;83.90;;;;;;5012271;28;20026;-55
2022/05/01 08:56:42;;;;;;;10.82;6.57;;;13.00;85.00;;;;;;5011438;28;20115;-52
2022/05/01 08:59:14;;;;;;;7.80;5.70;;;13.10;85.20;;;;;;5011904;28;20036;-53
2022/05/01 09:01:41;;;;;;;8.73;5.20;;;13.40;84.00;;;;;;5010581;28;20414;-50
2022/05/01 09:04:08;;;;;;;7.13;5.22;;;13.80;84.00;;;;;;5011328;28;20033;-53
2022/05/01 09:06:37;;;;;;;6.45;4.95;;;14.10;82.40;;;;;;5011793;28;20391;-55
2022/05/01 09:09:15;;;;;;;7.80;5.40;;;14.00;81.90;;;;;;5011757;28;20033;-51
2022/05/01 09:14:26;;;;;;;11.77;6.43;;;14.40;81.10;;;;;;5011456;28;20022;-52
2022/05/01 09:17:24;;;;;;;7.65;6.15;;;14.40;80.20;;;;;;5011813;28;20038;-53
2022/05/01 09:19:51;;;;;;;7.35;4.90;;;14.30;80.40;;;;;;5007480;28;20042;-50
2022/05/01 09:22:18;;;;;;;6.75;5.13;;;14.30;80.00;;;;;;5010675;28;20029;-53
2022/05/01 09:24:43;;;;;;;8.10;6.00;;;14.50;79.90;;;;;;5009894;28;20096;-52
2022/05/01 09:27:29;;;;;;;5.72;5.13;;;14.60;79.10;;;;;;5011673;28;20046;-52
2022/05/01 09:30:20;;;;;;;7.95;5.45;;;14.40;78.70;;;;;;5011377;28;20317;-50
2022/05/01 09:32:47;;;;;;;7.90;5.05;;;14.40;78.80;;;;;;5011010;28;20169;-53
2022/05/01 09:35:27;;;;;;;11.40;5.68;;;14.60;78.60;;;;;;5011527;28;20108;-49
2022/05/01 09:38:25;;;;;;;9.07;5.38;;;14.60;78.10;;;;;;5010831;28;20529;-53
2022/05/01 09:40:56;;;;;;;11.18;7.20;;;14.60;77.70;;;;;;5039702;22;20041;-54
2022/05/01 09:43:44;;;;;;;5.97;4.88;;;14.90;77.60;;;;;;5011504;28;20018;-51
2022/05/01 09:46:24;;;;;;;8.82;5.32;;;15.00;76.00;;;;;;5011172;28;20018;-53
2022/05/01 09:48:58;;;;;;;6.68;5.18;;;15.20;76.50;;;;;;5018438;28;20413;-53
2022/05/01 09:51:24;;;;;;;9.30;6.15;;;15.50;75.80;;;;;;5029682;28;20517;-56
2022/05/01 09:53:49;;;;;;;5.03;4.40;;;15.10;75.20;;;;;;5028327;28;20033;-55
2022/05/01 09:56:15;;;;;;;8.98;4.30;;;15.10;74.70;;;;;;5031048;28;20030;-52
2022/05/01 09:58:43;;;;;;;11.63;6.35;;;15.30;74.90;;;;;;5029795;28;20460;-55
2022/05/01 10:01:10;;;;;;;9.93;5.95;;;15.50;74.70;;;;;;5029366;28;20221;-55
2022/05/01 10:03:39;;;;;;;7.18;4.80;;;15.40;74.60;;;;;;5030279;28;20091;-53
2022/05/01 10:06:07;;;;;;;6.50;4.90;;;15.60;73.40;;;;;;5028907;28;20045;-55
2022/05/01 10:08:35;;;;;;;10.98;5.50;;;15.50;73.20;;;;;;5030983;28;20033;-54
2022/05/01 10:11:02;;;;;;;5.93;4.45;;;15.60;74.20;;;;;;5013449;28;20406;-56
2022/05/01 10:13:28;;;;;;;8.00;4.85;;;15.70;73.50;;;;;;5010718;28;20026;-53
2022/05/01 10:15:54;;;;;;;6.53;4.65;;;15.90;72.80;;;;;;5014955;28;20032;-54
2022/05/01 10:18:23;;;;;;;7.45;4.57;;;15.80;73.00;;;;;;5026812;28;20021;-53
2022/05/01 10:20:49;;;;;;;6.05;5.00;;;15.80;73.30;;;;;;5012768;28;20503;-56
2022/05/01 10:23:16;;;;;;;8.45;4.78;;;16.00;73.50;;;;;;5030307;28;20027;-54
2022/05/01 10:25:52;;;;;;;9.05;5.10;;;16.00;73.10;;;;;;5030161;28;20064;-54
2022/05/01 10:28:27;;;;;;;7.47;4.78;;;15.90;73.00;;;;;;5030434;28;20076;-50
2022/05/01 10:34:05;;;;;;;6.68;5.03;;;16.20;72.40;;;;;;5030670;28;20018;-55
2022/05/01 10:36:52;;;;;;;5.40;4.80;;;15.90;72.60;;;;;;5030609;28;20037;-54
2022/05/01 10:39:19;;;;;;;8.27;5.50;;;15.90;73.00;;;;;;5031086;28;20117;-53
2022/05/01 10:41:46;;;;;;;8.30;5.68;;;15.70;72.50;;;;;;5030851;28;20037;-56
2022/05/01 10:44:35;;;;;;;8.52;6.00;;;15.80;73.10;;;;;;5030351;28;20445;-50
2022/05/01 10:47:16;;;;;;;10.57;5.65;;;16.00;73.20;;;;;;5030184;28;20037;-55
2022/05/01 10:49:49;;;;;;;8.13;4.78;;;16.20;72.70;;;;;;5030285;28;20044;-53
2022/05/01 10:52:22;;;;;;;7.32;4.65;;;16.40;71.90;;;;;;5030009;28;20037;-54
2022/05/01 10:55:00;;;;;;;7.65;4.82;;;16.70;72.10;;;;;;5031121;28;20052;-53
2022/05/01 10:57:26;;;;;;;7.07;5.40;;;16.60;71.90;;;;;;5033402;28;20033;-52
2022/05/01 11:00:12;;;;;;;10.05;5.40;;;16.70;70.90;;;;;;5033527;28;20481;-52
2022/05/01 11:02:43;;;;;;;8.13;5.03;;;16.40;71.40;;;;;;5033778;28;20041;-55
2022/05/01 11:05:11;;;;;;;7.78;5.18;;;16.50;72.10;;;;;;5033013;28;20033;-53
2022/05/01 11:07:39;;;;;;;8.93;5.25;;;16.50;71.70;;;;;;5032782;28;20117;-50
2022/05/01 11:10:07;;;;;;;8.50;5.20;;;16.60;71.60;;;;;;5033542;28;20628;-53
2022/05/01 11:12:35;;;;;;;5.90;5.00;;;16.50;71.20;;;;;;5033771;28;20527;-52
2022/05/01 11:15:06;;;;;;;7.20;5.10;;;16.50;71.60;;;;;;5032033;28;20033;-56
2022/05/01 11:17:44;;;;;;;5.50;4.28;;;16.40;71.90;;;;;;5029148;28;20028;-54
2022/05/01 11:20:24;;;;;;;6.82;4.95;;;16.40;71.80;;;;;;5027086;28;20029;-50
2022/05/01 11:22:52;;;;;;;9.02;5.45;;;16.90;71.20;;;;;;5033361;28;20025;-60
2022/05/01 11:25:38;;;;;;;7.40;4.90;;;17.00;71.30;;;;;;5031818;28;20033;-54
2022/05/01 11:28:05;;;;;;;7.57;5.60;;;16.80;71.20;;;;;;5032843;28;20041;-52
2022/05/01 11:30:31;;;;;;;7.60;5.28;;;16.70;71.20;;;;;;5037077;28;20030;-54
2022/05/01 11:33:01;;;;;;;8.38;5.20;;;16.70;71.20;;;;;;5031847;28;20033;-54
2022/05/01 11:35:54;;;;;;;7.97;5.18;;;16.80;70.90;;;;;;5039707;28;20493;-57
2022/05/01 11:38:50;;;;;;;6.00;5.40;;;16.90;70.50;;;;;;5030446;28;20041;-56
2022/05/01 11:41:35;;;;;;;10.18;5.70;;;16.90;71.00;;;;;;5030515;28;20493;-55
2022/05/01 11:44:24;;;;;;;7.82;5.63;;;16.70;71.40;;;;;;5029577;28;20101;-53
2022/05/01 11:46:51;;;;;;;8.77;5.82;;;16.50;71.90;;;;;;5030711;28;20021;-55
2022/05/01 11:49:17;;;;;;;6.13;5.50;;;16.50;72.20;;;;;;5031207;28;20091;-55
2022/05/01 11:51:47;;;;;;;12.50;6.15;;;16.60;71.90;;;;;;5029651;28;20033;-53
2022/05/01 11:54:14;;;;;;;8.90;5.97;;;16.80;71.10;;;;;;5027326;28;20482;-55
2022/05/01 12:02:25;;;;;;;10.27;6.05;;;16.70;70.80;;;;;;5015880;28;20168;-53
2022/05/01 12:04:51;;;;;;;9.77;5.63;;;16.90;71.00;;;;;;5030912;28;20570;-57
2022/05/01 12:07:18;;;;;;;9.20;5.78;;;16.70;72.30;;;;;;5030775;28;20064;-54
2022/05/01 12:09:46;;;;;;;10.40;6.00;;;17.00;71.20;;;;;;5022813;28;20100;-53
2022/05/01 12:12:14;;;;;;;6.43;5.13;;;17.10;70.80;;;;;;5023903;28;20034;-51
2022/05/01 12:14:41;;;;;;;7.20;5.53;;;17.30;70.80;;;;;;5031512;28;20042;-52
2022/05/01 12:17:14;;;;;;;7.72;5.80;;;17.50;70.80;;;;;;5031967;28;20136;-57
2022/05/01 12:19:42;;;;;;;8.27;6.05;;;17.50;70.40;;;;;;5035206;28;20061;-52
2022/05/01 12:22:10;;;;;;;9.10;5.80;;;17.50;70.10;;;;;;5033984;28;20029;-52
2022/05/01 12:24:36;;;;;;;8.63;5.95;;;17.60;69.70;;;;;;5034048;28;20044;-52
2022/05/01 12:27:03;;;;;;;9.93;5.88;;;17.50;70.50;;;;;;5031663;28;20040;-54
2022/05/01 12:29:30;;;;;;;9.35;5.28;;;17.70;70.40;;;;;;5032214;28;20041;-51
2022/05/01 12:32:09;;;;;;;9.10;5.82;;;18.00;69.80;;;;;;5031069;28;20037;-55
2022/05/01 12:34:42;;;;;;;8.98;5.75;;;18.20;69.40;;;;;;5031856;28;20029;-58
2022/05/01 12:37:19;;;;;;;9.65;7.13;;;18.20;68.80;;;;;;5031817;28;20111;-58
2022/05/01 12:40:02;;;;;;;9.25;6.15;;;18.10;68.90;;;;;;5031506;28;20087;-56
2022/05/01 12:45:16;;;;;;;9.10;5.40;;;18.20;69.10;;;;;;5031229;28;20120;-53
2022/05/01 12:47:53;;;;;;;8.60;5.30;;;18.10;69.30;;;;;;5031088;28;20038;-57
2022/05/01 12:50:18;;;;;;;8.38;6.15;;;18.30;69.10;;;;;;5032048;28;20489;-57
2022/05/01 12:52:49;;;;;;;9.05;5.82;;;18.40;68.70;;;;;;5026956;28;20099;-55
2022/05/01 12:55:20;;;;;;;6.95;4.95;;;18.60;69.00;;;;;;5012798;28;20034;-57
2022/05/01 12:57:58;;;;;;;11.55;5.57;;;18.90;68.40;;;;;;5018227;28;20547;-56
2022/05/01 13:00:30;;;;;;;7.35;5.03;;;18.70;68.40;;;;;;5031589;28;20409;-55
2022/05/01 13:03:15;;;;;;;6.38;5.75;;;18.70;68.70;;;;;;5031004;28;20104;-52
2022/05/01 13:05:42;;;;;;;7.30;5.80;;;18.90;67.50;;;;;;5030438;28;20053;-54
2022/05/01 13:08:18;;;;;;;8.75;5.47;;;18.80;67.50;;;;;;5031253;28;20063;-55
2022/05/01 13:11:23;;;;;;;7.20;5.00;;;18.90;67.60;;;;;;5029703;28;20040;-50
2022/05/01 13:13:52;;;;;;;9.02;6.70;;;19.40;67.00;;;;;;5029453;28;20061;-54
2022/05/01 13:16:39;;;;;;;6.60;5.10;;;19.50;66.40;;;;;;5031004;28;20513;-54
2022/05/01 13:19:19;;;;;;;7.05;5.15;;;19.70;66.20;;;;;;5027860;28;20493;-55
2022/05/01 13:21:47;;;;;;;6.85;5.18;;;19.60;67.10;;;;;;5027945;28;20571;-52
2022/05/01 13:24:26;;;;;;;6.07;5.15;;;19.50;67.20;;;;;;5031273;28;20029;-48
2022/05/01 13:26:52;;;;;;;8.10;5.60;;;19.70;66.60;;;;;;5029903;28;20095;-51
2022/05/01 13:29:18;;;;;;;10.70;6.68;;;19.70;65.70;;;;;;5029645;28;20021;-52